createdAt,value
2018-05-09T00:01:23.224Z,14.55
2018-05-09T00:03:50.853Z,14.51
2018-05-09T00:06:18.514Z,14.48
2018-05-09T00:08:46.150Z,14.45
2018-05-09T00:11:13.763Z,14.43
2018-05-09T00:13:41.482Z,14.42
2018-05-09T00:16:09.112Z,14.40
2018-05-09T00:18:36.746Z,14.38
2018-05-09T00:21:04.353Z,14.37
2018-05-09T00:23:31.990Z,14.35
2018-05-09T00:25:59.686Z,14.32
2018-05-09T00:28:27.355Z,14.29
2018-05-09T00:30:55.023Z,14.24
2018-05-09T00:33:22.682Z,14.19
2018-05-09T00:35:50.322Z,14.14
2018-05-09T00:38:18.012Z,14.10
2018-05-09T00:40:45.670Z,14.06
2018-05-09T00:43:13.330Z,14.03
2018-05-09T00:45:40.987Z,14.00
2018-05-09T00:48:08.594Z,13.96
2018-05-09T00:50:36.315Z,13.93
2018-05-09T00:53:03.978Z,13.89
2018-05-09T00:55:31.615Z,13.84
2018-05-09T00:57:59.312Z,13.77
2018-05-09T01:00:27.076Z,13.71
2018-05-09T01:02:54.740Z,13.65
2018-05-09T01:05:22.407Z,13.61
2018-05-09T01:07:50.064Z,13.58
2018-05-09T01:10:18.019Z,13.56
2018-05-09T01:12:45.694Z,13.54
2018-05-09T01:15:13.326Z,13.51
2018-05-09T01:17:41.013Z,13.50
2018-05-09T01:20:08.659Z,13.48
2018-05-09T01:22:36.274Z,13.47
2018-05-09T01:25:03.912Z,13.45
2018-05-09T01:27:31.571Z,13.43
2018-05-09T01:29:59.227Z,13.41
2018-05-09T01:32:26.892Z,13.39
2018-05-09T01:34:54.531Z,13.38
2018-05-09T01:37:22.211Z,13.36
2018-05-09T01:39:49.866Z,13.34
2018-05-09T01:42:17.510Z,13.32
2018-05-09T01:44:45.203Z,13.31
2018-05-09T01:47:12.843Z,13.29
2018-05-09T01:49:40.528Z,13.29
2018-05-09T01:52:08.167Z,13.28
2018-05-09T01:54:35.794Z,13.27
2018-05-09T01:57:03.519Z,13.24
2018-05-09T01:59:31.139Z,13.20
2018-05-09T02:01:58.779Z,13.18
2018-05-09T02:04:26.399Z,13.15
2018-05-09T02:06:54.027Z,13.12
2018-05-09T02:09:21.641Z,13.10
2018-05-09T02:11:49.280Z,13.06
2018-05-09T02:14:16.904Z,13.03
2018-05-09T02:16:44.539Z,13.02
2018-05-09T02:19:12.191Z,13.03
2018-05-09T02:21:39.830Z,13.02
2018-05-09T02:24:07.526Z,13.02
2018-05-09T02:26:35.098Z,13.00
2018-05-09T02:29:02.710Z,12.98
2018-05-09T02:31:30.379Z,12.96
2018-05-09T02:33:57.999Z,12.94
2018-05-09T02:36:25.644Z,12.90
2018-05-09T02:38:53.353Z,12.84
2018-05-09T02:41:20.928Z,12.78
2018-05-09T02:43:48.776Z,12.73
2018-05-09T02:46:16.266Z,12.68
2018-05-09T02:48:43.874Z,12.64
2018-05-09T02:51:11.497Z,12.60
2018-05-09T02:53:39.242Z,12.57
2018-05-09T02:56:06.850Z,12.53
2018-05-09T02:58:34.565Z,12.51
2018-05-09T03:01:02.226Z,12.49
2018-05-09T03:03:29.890Z,12.47
2018-05-09T03:05:57.507Z,12.46
2018-05-09T03:08:25.216Z,12.45
2018-05-09T03:10:52.840Z,12.45
2018-05-09T03:13:20.483Z,12.44
2018-05-09T03:15:48.104Z,12.43
2018-05-09T03:18:15.862Z,12.43
2018-05-09T03:20:43.527Z,12.43
2018-05-09T03:23:11.167Z,12.43
2018-05-09T03:25:38.774Z,12.42
2018-05-09T03:28:06.412Z,12.42
2018-05-09T03:30:34.076Z,12.42
2018-05-09T03:33:01.721Z,12.42
2018-05-09T03:35:29.390Z,12.42
2018-05-09T03:37:57.031Z,12.42
2018-05-09T03:40:24.651Z,12.43
2018-05-09T03:42:52.291Z,12.43
2018-05-09T03:45:19.948Z,12.44
2018-05-09T03:47:47.608Z,12.45
2018-05-09T03:50:15.236Z,12.45
2018-05-09T03:52:42.930Z,12.46
2018-05-09T03:55:10.552Z,12.48
2018-05-09T03:57:38.259Z,12.50
2018-05-09T04:00:05.924Z,12.50
2018-05-09T04:02:45.558Z,12.54
2018-05-09T04:05:24.838Z,12.60
2018-05-09T04:08:04.343Z,12.72
2018-05-09T04:10:32.005Z,12.86
2018-05-09T04:12:59.626Z,13.08
2018-05-09T04:15:28.882Z,13.30
2018-05-09T04:17:56.527Z,13.45
2018-05-09T04:20:24.167Z,13.63
2018-05-09T04:22:51.784Z,13.84
2018-05-09T04:25:19.418Z,13.96
2018-05-09T04:27:47.066Z,14.07
2018-05-09T04:30:14.740Z,14.16
2018-05-09T04:32:42.404Z,14.24
2018-05-09T04:35:10.048Z,14.29
2018-05-09T04:37:37.661Z,14.33
2018-05-09T04:40:05.308Z,14.37
2018-05-09T04:42:32.936Z,14.39
2018-05-09T04:45:00.575Z,14.42
2018-05-09T04:47:28.308Z,14.45
2018-05-09T04:49:55.928Z,14.49
2018-05-09T04:52:23.547Z,14.50
2018-05-09T04:54:51.251Z,14.50
2018-05-09T04:57:18.867Z,14.51
2018-05-09T04:59:46.584Z,14.51
2018-05-09T05:02:14.155Z,14.50
2018-05-09T05:04:41.823Z,14.50
2018-05-09T05:07:09.569Z,14.51
2018-05-09T05:09:37.231Z,14.53
2018-05-09T05:12:04.902Z,14.56
2018-05-09T05:14:32.539Z,14.62
2018-05-09T05:17:00.212Z,14.67
2018-05-09T05:19:27.883Z,14.73
2018-05-09T05:21:55.523Z,14.80
2018-05-09T05:24:23.206Z,14.89
2018-05-09T05:26:50.871Z,14.98
2018-05-09T05:29:18.491Z,15.07
2018-05-09T05:31:46.197Z,15.17
2018-05-09T05:34:13.851Z,15.29
2018-05-09T05:36:41.491Z,15.40
2018-05-09T05:39:09.174Z,15.51
2018-05-09T05:41:36.816Z,15.62
2018-05-09T05:44:04.503Z,15.73
2018-05-09T05:46:32.894Z,15.84
2018-05-09T05:49:00.557Z,15.96
2018-05-09T05:51:28.190Z,16.07
2018-05-09T05:53:55.867Z,16.20
2018-05-09T05:56:23.503Z,16.34
2018-05-09T05:58:51.114Z,16.45
2018-05-09T06:01:18.864Z,16.58
2018-05-09T06:03:46.474Z,16.71
2018-05-09T06:06:14.190Z,16.83
2018-05-09T06:08:41.852Z,16.96
2018-05-09T06:11:09.487Z,17.10
2018-05-09T06:13:37.108Z,17.23
2018-05-09T06:16:04.751Z,17.36
2018-05-09T06:18:32.358Z,17.49
2018-05-09T06:20:59.995Z,17.63
2018-05-09T06:23:27.615Z,17.77
2018-05-09T06:25:55.284Z,17.90
2018-05-09T06:28:22.903Z,18.05
2018-05-09T06:30:50.653Z,18.19
2018-05-09T06:33:18.274Z,18.32
2018-05-09T06:35:45.883Z,18.47
2018-05-09T06:38:13.510Z,18.61
2018-05-09T06:40:41.124Z,18.76
2018-05-09T06:43:08.762Z,18.90
2018-05-09T06:45:36.483Z,19.03
2018-05-09T06:48:04.137Z,19.18
2018-05-09T06:50:31.752Z,19.32
2018-05-09T06:52:59.391Z,19.47
2018-05-09T06:55:27.031Z,19.60
2018-05-09T06:57:54.671Z,19.75
2018-05-09T07:00:22.280Z,19.88
2018-05-09T07:02:50.017Z,20.01
2018-05-09T07:05:17.627Z,20.16
2018-05-09T07:07:45.263Z,20.31
2018-05-09T07:10:12.880Z,20.46
2018-05-09T07:12:40.551Z,20.60
2018-05-09T07:15:08.179Z,20.74
2018-05-09T07:17:35.814Z,20.88
2018-05-09T07:20:03.426Z,21.03
2018-05-09T07:22:31.054Z,21.16
2018-05-09T07:24:58.776Z,21.29
2018-05-09T07:27:26.439Z,21.43
2018-05-09T07:29:54.103Z,21.58
2018-05-09T07:32:21.748Z,21.72
2018-05-09T07:34:49.423Z,21.85
2018-05-09T07:37:17.081Z,21.97
2018-05-09T07:39:44.742Z,22.09
2018-05-09T07:42:12.483Z,22.18
2018-05-09T07:44:40.077Z,22.29
2018-05-09T07:47:07.679Z,22.36
2018-05-09T07:49:35.320Z,22.50
2018-05-09T07:52:02.991Z,22.62
2018-05-09T07:54:30.731Z,22.73
2018-05-09T07:56:58.389Z,22.84
2018-05-09T07:59:26.028Z,22.94
2018-05-09T08:01:53.719Z,23.05
2018-05-09T08:04:21.352Z,23.16
2018-05-09T08:06:49.035Z,23.25
2018-05-09T08:09:17.416Z,23.35
2018-05-09T08:11:45.028Z,23.45
2018-05-09T08:14:12.672Z,23.56
2018-05-09T08:16:40.279Z,23.68
2018-05-09T08:19:08.262Z,23.80
2018-05-09T08:21:35.934Z,23.90
2018-05-09T08:24:03.563Z,24.03
2018-05-09T08:26:31.268Z,24.16
2018-05-09T08:28:58.903Z,24.26
2018-05-09T08:31:26.576Z,24.37
2018-05-09T08:33:54.474Z,24.47
2018-05-09T08:36:22.083Z,24.55
2018-05-09T08:38:49.724Z,24.62
2018-05-09T08:41:17.339Z,24.70
2018-05-09T08:43:45.094Z,24.78
2018-05-09T08:46:12.641Z,24.85
2018-05-09T08:48:40.277Z,24.93
2018-05-09T08:51:07.880Z,25.00
2018-05-09T08:53:35.702Z,25.08
2018-05-09T08:56:03.307Z,25.15
2018-05-09T08:58:30.980Z,25.20
2018-05-09T09:00:58.610Z,25.30
2018-05-09T09:03:26.223Z,25.39
2018-05-09T09:05:54.057Z,25.49
2018-05-09T09:08:21.822Z,25.59
2018-05-09T09:10:49.529Z,25.70
2018-05-09T09:13:17.099Z,25.78
2018-05-09T09:15:44.764Z,25.85
2018-05-09T09:18:12.375Z,25.91
2018-05-09T09:20:40.013Z,25.95
2018-05-09T09:23:07.617Z,26.00
2018-05-09T09:25:35.243Z,26.03
2018-05-09T09:28:02.983Z,26.07
2018-05-09T09:30:30.682Z,26.11
2018-05-09T09:32:58.294Z,26.15
2018-05-09T09:35:26.015Z,26.19
2018-05-09T09:37:53.635Z,26.23
2018-05-09T09:40:21.271Z,26.29
2018-05-09T09:42:48.900Z,26.34
2018-05-09T09:45:16.531Z,26.39
2018-05-09T09:47:44.139Z,26.43
2018-05-09T09:50:11.774Z,26.49
2018-05-09T09:52:39.440Z,26.54
2018-05-09T09:55:07.075Z,26.60
2018-05-09T09:57:34.700Z,26.67
2018-05-09T10:00:02.343Z,26.71
2018-05-09T10:02:29.955Z,26.76
2018-05-09T10:04:57.656Z,26.80
2018-05-09T10:07:25.323Z,26.85
2018-05-09T10:09:52.935Z,26.91
2018-05-09T10:12:20.566Z,26.99
2018-05-09T10:14:48.183Z,27.06
2018-05-09T10:17:15.813Z,27.13
2018-05-09T10:19:43.427Z,27.18
2018-05-09T10:22:11.067Z,27.21
2018-05-09T10:24:38.678Z,27.23
2018-05-09T10:27:06.418Z,27.27
2018-05-09T10:29:34.075Z,27.31
2018-05-09T10:32:01.713Z,27.35
2018-05-09T10:34:29.336Z,27.39
2018-05-09T10:36:57.057Z,27.43
2018-05-09T10:39:24.728Z,27.48
2018-05-09T10:41:52.386Z,27.52
2018-05-09T10:44:19.994Z,27.55
2018-05-09T10:46:47.627Z,27.57
2018-05-09T10:49:15.234Z,27.60
2018-05-09T10:51:42.930Z,27.64
2018-05-09T10:54:10.545Z,27.67
2018-05-09T10:56:38.187Z,27.71
2018-05-09T10:59:05.818Z,27.75
2018-05-09T11:01:33.479Z,27.77
2018-05-09T11:04:01.198Z,27.75
2018-05-09T11:06:28.904Z,27.77
2018-05-09T11:08:56.570Z,27.81
2018-05-09T11:11:24.203Z,27.86
2018-05-09T11:13:51.899Z,27.92
2018-05-09T11:16:19.548Z,27.95
2018-05-09T11:18:47.220Z,27.99
2018-05-09T11:21:14.983Z,28.03
2018-05-09T11:23:42.655Z,28.06
2018-05-09T11:26:10.273Z,28.09
2018-05-09T11:28:37.906Z,28.10
2018-05-09T11:31:05.539Z,28.14
2018-05-09T11:33:33.190Z,28.16
2018-05-09T11:36:00.863Z,28.19
2018-05-09T11:38:28.531Z,28.21
2018-05-09T11:40:56.140Z,28.26
2018-05-09T11:43:23.775Z,28.30
2018-05-09T11:45:51.416Z,28.31
2018-05-09T11:48:19.055Z,28.31
2018-05-09T11:50:46.726Z,28.32
2018-05-09T11:53:14.490Z,28.37
2018-05-09T11:55:42.155Z,28.43
2018-05-09T11:58:09.802Z,28.46
2018-05-09T12:00:37.487Z,28.47
2018-05-09T12:03:05.153Z,28.46
2018-05-09T12:05:32.763Z,28.46
2018-05-09T12:08:00.391Z,28.46
2018-05-09T12:10:28.023Z,28.49
2018-05-09T12:12:55.695Z,28.52
2018-05-09T12:15:23.359Z,28.54
2018-05-09T12:17:51.018Z,28.54
2018-05-09T12:20:18.686Z,28.56
2018-05-09T12:22:46.314Z,28.60
2018-05-09T12:25:13.918Z,28.63
2018-05-09T12:27:41.552Z,28.68
2018-05-09T12:30:09.236Z,28.74
2018-05-09T12:32:36.991Z,28.80
2018-05-09T12:35:04.653Z,28.81
2018-05-09T12:37:33.188Z,28.80
2018-05-09T12:40:00.810Z,28.80
2018-05-09T12:42:28.531Z,28.81
2018-05-09T12:44:56.325Z,28.82
2018-05-09T12:47:23.985Z,28.84
2018-05-09T12:49:51.623Z,28.85
2018-05-09T12:52:19.310Z,28.86
2018-05-09T12:54:46.935Z,28.92
2018-05-09T12:57:14.548Z,28.96
2018-05-09T12:59:42.201Z,29.01
2018-05-09T13:02:09.815Z,29.02
2018-05-09T13:04:37.522Z,28.96
2018-05-09T13:07:05.135Z,28.95
2018-05-09T13:09:32.855Z,28.95
2018-05-09T13:12:00.496Z,28.93
2018-05-09T13:14:28.122Z,28.93
2018-05-09T13:16:55.732Z,28.95
2018-05-09T13:19:23.395Z,28.97
2018-05-09T13:21:51.062Z,28.97
2018-05-09T13:24:18.700Z,28.99
2018-05-09T13:26:46.308Z,28.98
2018-05-09T13:29:13.946Z,28.98
2018-05-09T13:31:41.653Z,28.97
2018-05-09T13:34:09.232Z,29.00
2018-05-09T13:36:36.838Z,29.00
2018-05-09T13:39:04.468Z,29.01
2018-05-09T13:41:32.147Z,29.03
2018-05-09T13:43:59.747Z,29.08
2018-05-09T13:46:27.444Z,29.13
2018-05-09T13:48:55.015Z,29.17
2018-05-09T13:51:22.801Z,29.21
2018-05-09T13:53:50.519Z,29.22
2018-05-09T13:56:18.067Z,29.24
2018-05-09T13:58:45.679Z,29.25
2018-05-09T14:01:13.354Z,29.24
2018-05-09T14:03:40.976Z,29.25
2018-05-09T14:06:08.616Z,29.24
2018-05-09T14:08:36.260Z,29.24
2018-05-09T14:11:03.896Z,29.25
2018-05-09T14:13:31.513Z,29.25
2018-05-09T14:15:59.147Z,29.23
2018-05-09T14:18:26.782Z,29.20
2018-05-09T14:20:54.421Z,29.16
2018-05-09T14:23:22.039Z,29.13
2018-05-09T14:25:49.870Z,29.09
2018-05-09T14:28:17.478Z,29.05
2018-05-09T14:30:45.195Z,29.01
2018-05-09T14:33:12.863Z,28.93
2018-05-09T14:35:40.495Z,28.85
2018-05-09T14:38:08.190Z,28.77
2018-05-09T14:40:35.878Z,28.68
2018-05-09T14:43:03.467Z,28.53
2018-05-09T14:45:31.113Z,28.42
2018-05-09T14:47:58.845Z,28.26
2018-05-09T14:50:26.479Z,28.18
2018-05-09T14:52:54.097Z,28.12
2018-05-09T14:55:21.828Z,28.11
2018-05-09T14:57:49.448Z,28.06
2018-05-09T15:00:17.091Z,27.98
2018-05-09T15:02:44.820Z,27.91
2018-05-09T15:05:12.426Z,27.84
2018-05-09T15:07:40.059Z,27.78
2018-05-09T15:10:07.672Z,27.73
2018-05-09T15:12:35.302Z,27.66
2018-05-09T15:15:02.914Z,27.61
2018-05-09T15:17:30.546Z,27.56
2018-05-09T15:19:58.238Z,27.54
2018-05-09T15:22:25.870Z,27.53
2018-05-09T15:24:53.475Z,27.50
2018-05-09T15:27:21.113Z,27.46
2018-05-09T15:29:48.728Z,27.43
2018-05-09T15:32:16.358Z,27.37
2018-05-09T15:34:43.974Z,27.32
2018-05-09T15:37:11.681Z,27.26
2018-05-09T15:39:39.344Z,27.19
2018-05-09T15:42:06.982Z,27.13
2018-05-09T15:44:34.603Z,27.06
2018-05-09T15:47:03.020Z,26.98
2018-05-09T15:49:30.639Z,26.92
2018-05-09T15:51:58.371Z,26.86
2018-05-09T15:54:25.987Z,26.81
2018-05-09T15:56:53.624Z,26.76
2018-05-09T15:59:21.238Z,26.71
2018-05-09T16:01:48.920Z,26.65
2018-05-09T16:04:16.564Z,26.59
2018-05-09T16:06:44.233Z,26.56
2018-05-09T16:09:11.855Z,26.52
2018-05-09T16:11:39.597Z,26.50
2018-05-09T16:14:07.259Z,26.47
2018-05-09T16:16:34.851Z,26.42
2018-05-09T16:19:02.488Z,26.39
2018-05-09T16:21:30.099Z,26.36
2018-05-09T16:23:57.783Z,26.33
2018-05-09T16:26:25.444Z,26.29
2018-05-09T16:28:53.107Z,26.30
2018-05-09T16:31:20.714Z,26.38
2018-05-09T16:33:48.428Z,26.48
2018-05-09T16:36:16.103Z,26.62
2018-05-09T16:38:43.703Z,26.78
2018-05-09T16:41:11.322Z,26.91
2018-05-09T16:43:38.970Z,27.03
2018-05-09T16:46:06.582Z,27.14
2018-05-09T16:48:34.221Z,27.20
2018-05-09T16:51:01.848Z,27.24
2018-05-09T16:53:29.519Z,27.26
2018-05-09T16:55:57.183Z,27.31
2018-05-09T16:58:24.824Z,27.34
2018-05-09T17:00:52.439Z,27.35
2018-05-09T17:03:20.075Z,27.36
2018-05-09T17:05:47.691Z,27.31
2018-05-09T17:08:15.391Z,27.27
2018-05-09T17:10:43.051Z,27.25
2018-05-09T17:13:10.744Z,27.24
2018-05-09T17:15:38.347Z,27.24
2018-05-09T17:18:05.983Z,27.23
2018-05-09T17:20:33.596Z,27.13
2018-05-09T17:23:01.269Z,26.89
2018-05-09T17:25:28.919Z,26.63
2018-05-09T17:27:56.529Z,26.36
2018-05-09T17:30:24.198Z,26.09
2018-05-09T17:32:51.811Z,25.83
2018-05-09T17:35:19.491Z,25.59
2018-05-09T17:37:47.082Z,25.35
2018-05-09T17:40:14.718Z,25.12
2018-05-09T17:42:42.366Z,24.90
2018-05-09T17:45:09.993Z,24.72
2018-05-09T17:47:37.700Z,24.58
2018-05-09T17:50:05.340Z,24.43
2018-05-09T17:52:32.959Z,24.29
2018-05-09T17:55:00.605Z,24.16
2018-05-09T17:57:28.222Z,24.04
2018-05-09T17:59:55.903Z,23.92
2018-05-09T18:02:23.549Z,23.82
2018-05-09T18:04:51.178Z,23.72
2018-05-09T18:07:18.875Z,23.61
2018-05-09T18:09:46.503Z,23.51
2018-05-09T18:12:14.116Z,23.44
2018-05-09T18:14:41.956Z,23.38
2018-05-09T18:17:09.532Z,23.31
2018-05-09T18:19:37.196Z,23.24
2018-05-09T18:22:04.817Z,23.17
2018-05-09T18:24:32.468Z,23.08
2018-05-09T18:27:00.080Z,23.01
2018-05-09T18:29:27.736Z,22.93
2018-05-09T18:31:55.343Z,22.86
2018-05-09T18:34:23.068Z,22.79
2018-05-09T18:36:50.718Z,22.73
2018-05-09T18:39:18.492Z,22.66
2018-05-09T18:41:46.112Z,22.59
2018-05-09T18:44:13.791Z,22.51
2018-05-09T18:46:41.482Z,22.44
2018-05-09T18:49:09.096Z,22.37
2018-05-09T18:51:36.799Z,22.29
2018-05-09T18:54:04.496Z,22.22
2018-05-09T18:56:32.120Z,22.14
2018-05-09T18:58:59.793Z,22.06
2018-05-09T19:01:27.440Z,21.98
2018-05-09T19:03:55.042Z,21.91
2018-05-09T19:06:22.682Z,21.84
2018-05-09T19:08:50.299Z,21.77
2018-05-09T19:11:17.922Z,21.70
2018-05-09T19:13:45.539Z,21.62
2018-05-09T19:16:14.021Z,21.53
2018-05-09T19:18:41.594Z,21.44
2018-05-09T19:21:09.226Z,21.38
2018-05-09T19:23:36.835Z,21.30
2018-05-09T19:26:04.472Z,21.23
2018-05-09T19:28:32.120Z,21.17
2018-05-09T19:30:59.744Z,21.11
2018-05-09T19:33:27.367Z,21.06
2018-05-09T19:35:55.024Z,20.99
2018-05-09T19:38:22.686Z,20.93
2018-05-09T19:40:50.314Z,20.88
2018-05-09T19:43:18.019Z,20.83
2018-05-09T19:45:45.646Z,20.77
2018-05-09T19:48:13.260Z,20.72
2018-05-09T19:50:40.997Z,20.64
2018-05-09T19:53:08.667Z,20.57
2018-05-09T19:55:36.271Z,20.49
2018-05-09T19:58:03.996Z,20.43
2018-05-09T20:00:31.622Z,20.37
2018-05-09T20:02:59.310Z,20.33
2018-05-09T20:05:26.911Z,20.31
2018-05-09T20:07:54.627Z,20.28
2018-05-09T20:10:22.234Z,20.24
2018-05-09T20:12:49.862Z,20.19
2018-05-09T20:15:18.342Z,20.14
2018-05-09T20:17:45.965Z,20.09
2018-05-09T20:20:13.574Z,20.04
2018-05-09T20:22:41.230Z,20.00
2018-05-09T20:25:08.845Z,19.96
2018-05-09T20:27:36.484Z,19.93
2018-05-09T20:30:04.094Z,19.89
2018-05-09T20:32:40.120Z,19.85
2018-05-09T20:35:07.725Z,19.80
2018-05-09T20:37:35.390Z,19.75
2018-05-09T20:40:02.998Z,19.69
2018-05-09T20:42:30.635Z,19.64
2018-05-09T20:44:58.247Z,19.58
2018-05-09T20:47:25.891Z,19.52
2018-05-09T20:49:53.503Z,19.46
2018-05-09T20:52:21.135Z,19.40
2018-05-09T20:54:48.747Z,19.35
2018-05-09T20:57:16.370Z,19.30
2018-05-09T20:59:43.978Z,19.25
2018-05-09T21:02:11.582Z,19.21
2018-05-09T21:04:39.266Z,19.17
2018-05-09T21:07:06.875Z,19.13
2018-05-09T21:09:34.519Z,19.08
2018-05-09T21:12:08.918Z,19.02
2018-05-09T21:14:36.565Z,18.95
2018-05-09T21:17:04.183Z,18.87
2018-05-09T21:19:31.824Z,18.80
2018-05-09T21:21:59.444Z,18.75
2018-05-09T21:24:27.128Z,18.72
2018-05-09T21:26:54.743Z,18.71
2018-05-09T21:29:22.378Z,18.69
2018-05-09T21:31:49.992Z,18.66
2018-05-09T21:34:17.676Z,18.64
2018-05-09T21:36:45.278Z,18.60
2018-05-09T21:39:12.919Z,18.55
2018-05-09T21:41:40.530Z,18.53
2018-05-09T21:44:08.167Z,18.49
2018-05-09T21:46:35.783Z,18.44
2018-05-09T21:49:03.537Z,18.37
2018-05-09T21:51:31.780Z,18.31
2018-05-09T21:53:59.579Z,18.25
2018-05-09T21:56:27.192Z,18.20
2018-05-09T21:58:54.821Z,18.13
2018-05-09T22:01:23.160Z,18.07
2018-05-09T22:03:50.803Z,18.01
2018-05-09T22:06:18.410Z,17.97
2018-05-09T22:08:46.046Z,17.93
2018-05-09T22:11:13.727Z,17.90
2018-05-09T22:13:41.407Z,17.86
2018-05-09T22:16:09.023Z,17.82
2018-05-09T22:18:36.736Z,17.77
2018-05-09T22:21:04.376Z,17.71
2018-05-09T22:23:32.048Z,17.64
2018-05-09T22:25:59.714Z,17.58
2018-05-09T22:28:27.366Z,17.52
2018-05-09T22:30:55.004Z,17.46
2018-05-09T22:33:22.690Z,17.40
2018-05-09T22:35:50.362Z,17.35
2018-05-09T22:38:18.023Z,17.29
2018-05-09T22:40:45.663Z,17.24
2018-05-09T22:43:13.351Z,17.20
2018-05-09T22:45:41.538Z,17.16
2018-05-09T22:48:09.156Z,17.15
2018-05-09T22:50:36.806Z,17.12
2018-05-09T22:53:04.503Z,17.05
2018-05-09T22:55:32.172Z,17.00
2018-05-09T22:57:59.787Z,16.94
2018-05-09T23:00:27.489Z,16.90
2018-05-09T23:02:55.154Z,16.86
2018-05-09T23:05:22.824Z,16.80
2018-05-09T23:07:50.483Z,16.75
2018-05-09T23:10:18.205Z,16.71
2018-05-09T23:12:45.809Z,16.69
2018-05-09T23:15:13.471Z,16.66
2018-05-09T23:17:41.227Z,16.63
2018-05-09T23:20:08.901Z,16.61
2018-05-09T23:22:37.022Z,16.58
2018-05-09T23:25:04.651Z,16.54
2018-05-09T23:27:32.263Z,16.50
2018-05-09T23:29:59.894Z,16.45
2018-05-09T23:32:27.511Z,16.40
2018-05-09T23:34:55.115Z,16.35
2018-05-09T23:37:22.896Z,16.32
2018-05-09T23:39:50.502Z,16.30
2018-05-09T23:42:18.136Z,16.29
2018-05-09T23:44:45.751Z,16.27
2018-05-09T23:47:13.387Z,16.26
2018-05-09T23:49:41.042Z,16.26
2018-05-09T23:52:08.726Z,16.25
2018-05-09T23:54:36.344Z,16.24
2018-05-09T23:57:04.047Z,16.22
2018-05-09T23:59:31.659Z,16.20
